Portada
METAR-TAF:

METAR-TAF

Aeropuertos :

Aeropuerto Internacional de Irkutsk

Irkutsk, Rusia

latitud: 52-16N, longitud: 104-19E, altitud: 513 m

Observación

El informe se hizo hace 36 minutos, a las 21:30 UTC
Viento 8 kt del oeste-noroeste
Temperatura 4°C
Humedad 93%
Presión 1015 hPa
Visibilidad 10 km o más
sin nubes por debajo de 1500 m y sin presencia de cumulonimbus.

METAR: UIII 282130Z 30004MPS CAVOK 04/03 Q1015 R30/60D NOSIG RMK QFE716/0955

Hora: 06:06 (22:06 UTC)

Pronóstico

El informe se hizo hace 2 horas y 6 minutos, a las 20:00 UTC
Pronóstico válido del 28 a las 21 UTC al 29 a las 21 UTC
Viento 10 kt del oeste-noroeste
Visibilidad 10 km o más
Nubes dispersas a una altura de 2000 ft, Cumulonimbus.
Temporalmente
del 29 a las 01 UTC al 29 a las 12 UTC
Viento 19 kt del noroeste
chaparrones de lluvia

TAF: UIII 282000Z 2821/2921 30005MPS 9999 SCT020CB TEMPO 2901/2912 32010MPS -SHRA

Observaciones y pronósticos meteorológicos de más de 4000 aeropuertos (mensajes METAR y TAF).

Los puntos amarillos y rojos representan las estaciones disponibles.

Ponga el ratón en el punto deseado para ver el nombre de la estación.

Haga clic para ver las observaciones y los pronósticos meteorológicos.

Para cambiar el mapa : haga clic en los botones verdes con una cruz de color negro para hacer un zoom, en el botón verde con un guión para alejar o en las flechas verdes para mapas adyacentes.


METAR-TAF: